Terminal Aerodrome Forecast
Issued by NWS Brownsville, TX

Home | Current Version | Previous Version | Text Only | Print | Product List | Glossary On
Versions: 1 2 3 4 5 6 7 8 9 10 11 12 13 14
993
FTUS44 KBRO 280043 CCA
TAFMFE
TAF COR
KMFE 280043Z 2801/2824 14013G21KT P6SM SCT040 BKN180 BKN250
     FM280200 13014KT P6SM FEW030 SCT250
     FM280600 14009KT P6SM FEW020 SCT250
     FM281500 14015G20KT P6SM SCT040 BKN150=

USA.gov is the U.S. government's official web portal to all federal, state and local government web resources and services.